Time;durP1;ratioP1;P1;durP2;ratioP2;P2;SDS_P1;SDS_P2;PMS_P1;PMS_P2;Temp;Humidity;BMP_temperature;BMP_pressure;BME280_temperature;BME280_humidity;BME280_pressure;Samples;Min_cycle;Max_cycle;Signal;HPM_P1;HPM_P2
2022/04/23 00:02:12;;;;;;;3.45;3.25;;;;;;;11.24;84.87;100214.03;4913722;29;20052;-83
2022/04/23 00:04:39;;;;;;;3.97;3.55;;;;;;;11.13;85.16;100196.47;4929974;29;20059;-81
2022/04/23 00:07:06;;;;;;;4.05;3.72;;;;;;;11.09;85.43;100194.25;4929772;29;20043;-81
2022/04/23 00:09:33;;;;;;;3.75;3.45;;;;;;;11.23;85.49;100217.66;4914022;29;20414;-81
2022/04/23 00:12:01;;;;;;;3.83;3.53;;;;;;;11.07;84.71;100206.88;4913891;29;20387;-82
2022/04/23 00:14:28;;;;;;;5.30;3.40;;;;;;;10.40;85.02;100108.84;4931017;29;20066;-83
2022/04/23 00:16:57;;;;;;;4.00;3.65;;;;;;;10.60;85.00;100145.91;4913937;29;20052;-81
2022/04/23 00:19:24;;;;;;;3.85;3.42;;;;;;;10.72;85.06;100171.28;4930876;29;20048;-81
2022/04/23 00:21:51;;;;;;;5.03;3.08;;;;;;;10.52;85.01;100146.66;4914060;29;20075;-82
2022/04/23 00:24:20;;;;;;;3.25;3.00;;;;;;;10.98;85.33;100229.03;4900574;29;20709;-82
2022/04/23 00:26:46;;;;;;;3.92;3.63;;;;;;;10.99;85.92;100228.84;4894785;29;20052;-82
2022/04/23 00:29:13;;;;;;;3.67;3.38;;;;;;;11.03;85.92;100226.75;4911644;29;20040;-82
2022/04/23 00:31:41;;;;;;;3.50;3.17;;;;;;;11.03;85.68;100221.44;4911477;29;20058;-82
2022/04/23 00:34:08;;;;;;;3.50;3.20;;;;;;;10.90;86.13;100190.75;4894660;29;20152;-82
2022/04/23 00:36:35;;;;;;;3.40;3.10;;;;;;;10.91;86.25;100192.41;4894630;29;20052;-82
2022/04/23 00:39:05;;;;;;;3.42;3.13;;;;;;;10.94;86.04;100187.78;4894887;29;20207;-82
2022/04/23 00:41:45;;;;;;;3.13;2.83;;;;;;;11.23;85.14;100201.72;4894551;29;20512;-82
2022/04/23 00:44:15;;;;;;;5.28;3.20;;;;;;;10.44;84.57;100110.25;4910814;29;20062;-82
2022/04/23 00:46:43;;;;;;;3.33;3.03;;;;;;;10.36;84.56;100096.84;4911238;29;20059;-82
2022/04/23 00:49:10;;;;;;;3.72;3.42;;;;;;;11.04;85.07;100217.78;4894164;29;20143;-82
2022/04/23 00:51:38;;;;;;;3.13;2.92;;;;;;;10.85;85.09;100182.41;4894641;29;20056;-83
2022/04/23 00:54:09;;;;;;;3.80;2.90;;;;;;;10.84;85.50;100185.19;4894406;29;20048;-82
2022/04/23 00:56:40;;;;;;;3.50;3.20;;;;;;;10.56;85.11;100133.91;4894385;29;20052;-82
2022/04/23 00:59:11;;;;;;;3.05;2.85;;;;;;;10.85;85.52;100171.78;4894238;29;20135;-83
2022/04/23 01:01:43;;;;;;;3.37;3.00;;;;;;;10.96;85.92;100183.19;4893524;29;20326;-82
2022/04/23 01:04:12;;;;;;;;;;;;;;;11.04;85.47;100196.53;4911238;29;20042;-81
2022/04/23 01:06:39;;;;;;;4.05;2.80;;;;;;;11.08;85.09;100184.63;4910204;29;19930;-82
2022/04/23 01:09:07;;;;;;;6.15;3.17;;;;;;;11.02;85.37;100169.28;4909699;29;20052;-81
2022/04/23 01:11:37;;;;;;;2.80;2.60;;;;;;;11.07;85.39;100186.47;4893952;29;20396;-83
2022/04/23 01:14:05;;;;;;;3.60;2.92;;;;;;;11.11;85.01;100192.28;4910568;29;20067;-82
2022/04/23 01:16:33;;;;;;;3.25;2.95;;;;;;;10.69;84.39;100121.16;4910475;29;20103;-82
2022/04/23 01:19:00;;;;;;;3.35;2.80;;;;;;;11.03;83.59;100171.81;4892950;29;20048;-82
2022/04/23 01:21:27;;;;;;;3.42;2.72;;;;;;;10.89;83.83;100170.47;4910630;29;20079;-82
2022/04/23 01:23:56;;;;;;;3.10;2.83;;;;;;;11.00;84.10;100203.16;4920405;29;20102;-82
2022/04/23 01:26:31;;;;;;;5.05;3.30;;;;;;;10.93;84.58;100215.34;4912607;29;20044;-82
2022/04/23 01:28:59;;;;;;;3.20;2.90;;;;;;;10.86;84.31;100212.44;4911029;29;20832;-82
2022/04/23 01:31:27;;;;;;;3.35;3.05;;;;;;;10.60;84.52;100167.16;4928339;29;20387;-83
2022/04/23 01:33:54;;;;;;;3.35;2.90;;;;;;;10.94;84.74;100217.84;4912169;29;20047;-82
2022/04/23 01:36:21;;;;;;;2.75;2.55;;;;;;;10.84;84.80;100219.72;4911643;29;20048;-82
2022/04/23 01:38:48;;;;;;;5.40;3.45;;;;;;;10.88;85.31;100229.06;4928672;29;20142;-83
2022/04/23 01:41:15;;;;;;;3.20;2.90;;;;;;;10.90;85.04;100230.59;4912893;29;20083;-84
2022/04/23 01:43:42;;;;;;;3.35;3.13;;;;;;;10.48;85.60;100154.09;4911806;29;20059;-83
2022/04/23 01:46:09;;;;;;;3.45;3.15;;;;;;;11.04;84.89;100239.88;4918140;29;20044;-82
2022/04/23 01:48:35;;;;;;;4.05;2.80;;;;;;;11.19;84.11;100226.94;4918649;29;20047;-83
2022/04/23 01:51:02;;;;;;;3.35;2.72;;;;;;;11.11;84.23;100214.38;4914761;29;20197;-83
2022/04/23 01:53:29;;;;;;;2.65;2.45;;;;;;;11.11;83.46;100216.19;4912611;29;20516;-83
2022/04/23 01:55:56;;;;;;;2.80;2.60;;;;;;;11.03;83.73;100226.75;4912660;29;20516;-81
2022/04/23 01:58:23;;;;;;;2.53;2.33;;;;;;;11.01;84.62;100216.25;4915395;29;20052;-82
2022/04/23 02:00:50;;;;;;;2.85;2.65;;;;;;;10.38;84.39;100118.78;4930441;29;20075;-81
2022/04/23 02:03:17;;;;;;;2.63;2.42;;;;;;;10.61;85.09;100158.22;4914664;29;20305;-81
2022/04/23 02:05:44;;;;;;;3.38;2.65;;;;;;;11.13;84.49;100238.97;4914766;29;20107;-81
2022/04/23 02:08:15;;;;;;;3.00;2.42;;;;;;;10.50;83.58;100118.59;4931661;29;20062;-82
2022/04/23 02:10:42;;;;;;;2.53;2.33;;;;;;;10.96;83.84;100201.75;4915798;29;20505;-82
2022/04/23 02:13:10;;;;;;;2.55;2.35;;;;;;;10.68;84.05;100165.44;4934717;29;20067;-82
2022/04/23 02:15:38;;;;;;;3.28;2.38;;;;;;;11.16;84.33;100245.81;4937907;29;20304;-80
2022/04/23 02:18:05;;;;;;;2.20;2.10;;;;;;;11.07;84.62;100223.66;4927411;29;20062;-81
2022/04/23 02:20:32;;;;;;;2.35;2.15;;;;;;;10.94;84.53;100204.56;4944630;29;20056;-80
2022/04/23 02:22:59;;;;;;;2.83;2.53;;;;;;;11.12;84.93;100239.16;4941290;29;20068;-82
2022/04/23 02:25:26;;;;;;;3.65;3.20;;;;;;;11.21;84.48;100240.88;4906497;29;20700;-82
2022/04/23 02:27:57;;;;;;;3.92;2.42;;;;;;;10.46;84.79;100126.84;4902424;29;20060;-81
2022/04/23 02:30:24;;;;;;;3.10;2.58;;;;;;;10.72;84.32;100165.97;4896806;29;20044;-82
2022/04/23 02:32:50;;;;;;;3.58;2.45;;;;;;;11.18;85.05;100241.19;4896803;29;20066;-80
2022/04/23 02:35:20;;;;;;;3.08;2.78;;;;;;;11.17;84.63;100238.69;4913428;29;20048;-81
2022/04/23 02:37:50;;;;;;;4.20;2.55;;;;;;;10.69;85.08;100160.97;4913492;29;20048;-82
2022/04/23 02:40:17;;;;;;;2.80;2.60;;;;;;;11.10;84.79;100233.16;4896384;29;20052;-82
2022/04/23 02:42:44;;;;;;;2.92;2.70;;;;;;;10.97;84.66;100216.69;4896452;29;20064;-81
2022/04/23 02:45:15;;;;;;;2.40;2.20;;;;;;;10.95;84.85;100213.34;4913141;29;20062;-82
2022/04/23 02:47:46;;;;;;;2.60;2.40;;;;;;;11.08;84.94;100224.47;4913524;29;20044;-82
2022/04/23 02:50:14;;;;;;;4.07;2.72;;;;;;;11.11;85.03;100234.81;4896787;29;20059;-81
2022/04/23 02:52:42;;;;;;;3.03;2.72;;;;;;;10.95;85.43;100198.28;4896399;29;20055;-81
2022/04/23 02:55:12;;;;;;;3.28;2.78;;;;;;;10.84;84.48;100169.25;4913064;29;20060;-79
2022/04/23 02:57:40;;;;;;;3.45;2.67;;;;;;;11.18;83.79;100225.25;4911674;29;20060;-82
2022/04/23 03:00:10;;;;;;;2.83;2.60;;;;;;;11.13;84.12;100227.53;4912759;29;20059;-82
2022/04/23 03:02:40;;;;;;;3.10;2.63;;;;;;;11.03;83.88;100232.06;4895718;29;20068;-82
2022/04/23 03:05:11;;;;;;;3.10;2.85;;;;;;;10.96;83.75;100230.97;4912862;29;20052;-81
2022/04/23 03:07:39;;;;;;;3.10;2.90;;;;;;;10.73;84.10;100204.81;4912839;29;20431;-81
2022/04/23 03:10:09;;;;;;;2.83;2.63;;;;;;;10.35;83.60;100142.97;4895989;29;20062;-81
2022/04/23 03:12:36;;;;;;;2.70;2.50;;;;;;;10.88;84.57;100224.59;4895834;29;20445;-82
2022/04/23 03:15:04;;;;;;;2.50;2.30;;;;;;;10.72;83.74;100194.34;4912962;29;20059;-80
2022/04/23 03:17:31;;;;;;;3.28;2.88;;;;;;;10.96;83.65;100230.97;4895834;29;20510;-80
2022/04/23 03:19:58;;;;;;;4.35;2.72;;;;;;;11.05;83.56;100243.38;4895669;29;20058;-81
2022/04/23 03:22:25;;;;;;;4.15;3.08;;;;;;;10.60;83.89;100175.94;4896041;29;20511;-81
2022/04/23 03:24:51;;;;;;;3.78;2.47;;;;;;;10.78;83.65;100217.66;4930041;29;20303;-82
2022/04/23 03:27:18;;;;;;;3.50;3.15;;;;;;;10.38;83.56;100145.31;4946556;28;20055;-81
2022/04/23 03:29:44;;;;;;;5.00;4.40;;;;;;;10.89;83.70;100209.47;4931458;29;20044;-80
2022/04/23 03:32:11;;;;;;;10.10;8.05;;;;;;;10.89;83.45;100226.25;4914437;29;20054;-82
2022/04/23 03:34:38;;;;;;;14.48;12.35;;;;;;;10.70;82.73;100189.16;4914400;29;20513;-81
2022/04/23 03:37:06;;;;;;;16.65;13.82;;;;;;;10.81;82.22;100202.25;4914663;29;20107;-81
2022/04/23 03:39:33;;;;;;;18.40;16.20;;;;;;;10.79;82.77;100209.53;4914525;29;20052;-82
2022/04/23 03:42:03;;;;;;;18.00;15.70;;;;;;;11.00;82.34;100227.06;4930149;29;20064;-82
2022/04/23 03:44:31;;;;;;;22.55;14.50;;;;;;;11.07;83.32;100247.56;4931122;29;20051;-82
2022/04/23 03:46:59;;;;;;;14.27;11.68;;;;;;;11.02;83.50;100214.44;4930001;29;20486;-82
2022/04/23 03:49:26;;;;;;;13.18;9.75;;;;;;;11.13;83.27;100238.16;4914007;29;20087;-79
2022/04/23 03:51:52;;;;;;;7.00;5.65;;;;;;;11.16;81.90;100237.00;4914507;29;20078;-82
2022/04/23 03:54:19;;;;;;;7.07;4.72;;;;;;;10.71;82.05;100156.34;4914304;29;20056;-82
2022/04/23 03:56:47;;;;;;;8.00;7.22;;;;;;;11.30;81.46;100241.81;4930132;29;20545;-82
2022/04/23 03:59:14;;;;;;;4.75;4.25;;;;;;;11.28;81.32;100226.00;4914211;29;20055;-81
2022/04/23 04:01:42;;;;;;;4.43;4.03;;;;;;;11.47;81.49;100245.50;4914190;29;20450;-81
2022/04/23 04:04:09;;;;;;;4.63;3.80;;;;;;;11.38;81.83;100241.91;4914009;29;20047;-81
2022/04/23 04:06:36;;;;;;;3.42;3.22;;;;;;;11.36;81.87;100227.09;4930840;29;20059;-82
2022/04/23 04:09:02;;;;;;;3.05;2.75;;;;;;;10.50;80.79;100092.88;4930675;29;20067;-81
2022/04/23 04:12:01;;;;;;;3.17;2.88;;;;;;;11.53;81.02;100255.53;4943276;28;20055;-83
2022/04/23 04:14:16;;;;;;;2.88;2.60;;;;;;;11.45;80.84;100252.78;4928519;29;20052;-82
2022/04/23 04:16:45;;;;;;;4.15;2.38;;;;;;;10.24;80.15;100055.56;4943351;29;20067;-82
2022/04/23 04:19:14;;;;;;;2.95;2.55;;;;;;;11.30;80.71;100247.13;4913508;29;20048;-82
2022/04/23 04:21:43;;;;;;;3.35;2.50;;;;;;;11.47;80.51;100286.19;4910201;29;20084;-82
2022/04/23 04:24:13;;;;;;;3.35;2.30;;;;;;;11.24;80.04;100245.09;4909382;29;20107;-83
2022/04/23 04:26:41;;;;;;;3.10;2.88;;;;;;;11.28;80.41;100262.38;4892699;29;20589;-83
2022/04/23 04:29:08;;;;;;;2.97;2.67;;;;;;;11.39;81.50;100304.72;4893291;29;20056;-82
2022/04/23 04:31:48;;;;;;;3.70;2.45;;;;;;;11.22;81.82;100277.13;4892856;29;20079;-80
2022/04/23 04:34:20;;;;;;;4.05;2.90;;;;;;;11.36;82.81;100314.78;4892735;29;20390;-81
2022/04/23 04:36:48;;;;;;;;;;;;;;;11.31;82.18;100305.47;4893363;29;20494;-81
2022/04/23 04:39:16;;;;;;;2.28;2.13;;;;;;;11.24;83.18;100304.38;4893357;29;19930;-82
2022/04/23 04:41:44;;;;;;;4.00;3.60;;;;;;;11.22;83.43;100301.03;4892797;29;20149;-82
2022/04/23 04:44:10;;;;;;;3.20;3.00;;;;;;;11.28;82.57;100288.97;4892333;29;20056;-82
2022/04/23 04:46:40;;;;;;;2.95;2.28;;;;;;;11.38;82.67;100305.69;4909544;29;20052;-82
2022/04/23 04:49:09;;;;;;;3.38;3.08;;;;;;;11.27;83.15;100288.13;4904483;29;20512;-81
2022/04/23 04:51:36;;;;;;;3.00;2.67;;;;;;;11.39;83.43;100302.06;4895367;29;20063;-81
2022/04/23 04:54:07;;;;;;;3.83;2.95;;;;;;;11.45;82.76;100311.25;4892584;29;20103;-82
2022/04/23 04:56:33;;;;;;;3.88;2.55;;;;;;;11.30;83.80;100281.69;4896434;29;20537;-82
2022/04/23 04:59:01;;;;;;;3.35;2.97;;;;;;;11.21;83.24;100262.16;4924473;29;20055;-81
2022/04/23 05:01:28;;;;;;;3.33;2.50;;;;;;;11.40;82.41;100285.13;4916767;29;20052;-82
2022/04/23 05:03:55;;;;;;;2.65;2.45;;;;;;;11.58;81.85;100289.59;4892160;29;20454;-80
2022/04/23 05:06:22;;;;;;;3.30;3.00;;;;;;;11.65;81.98;100298.66;4892087;29;20064;-82
2022/04/23 05:08:49;;;;;;;3.40;3.10;;;;;;;11.65;83.13;100299.53;4909439;29;20051;-82
2022/04/23 05:11:16;;;;;;;2.85;2.65;;;;;;;11.62;83.15;100297.13;4920204;29;20063;-82
2022/04/23 05:13:42;;;;;;;3.10;2.80;;;;;;;11.67;83.29;100310.81;4941009;29;20057;-82
2022/04/23 05:16:09;;;;;;;5.10;3.70;;;;;;;11.62;82.95;100307.78;4897501;29;20048;-82
2022/04/23 05:18:36;;;;;;;3.33;3.03;;;;;;;11.65;82.51;100311.94;4892574;29;20079;-82
2022/04/23 05:21:04;;;;;;;3.35;2.85;;;;;;;11.71;82.33;100312.19;4904085;29;20498;-81
2022/04/23 05:23:31;;;;;;;5.38;2.90;;;;;;;11.50;82.56;100277.06;4927792;29;20063;-81
2022/04/23 05:25:58;;;;;;;3.45;2.72;;;;;;;11.64;82.35;100310.28;4910600;29;20055;-81
2022/04/23 05:28:24;;;;;;;4.47;3.30;;;;;;;11.43;83.11;100276.00;4913416;29;20210;-81
2022/04/23 05:30:51;;;;;;;3.85;2.90;;;;;;;11.48;83.16;100284.34;4907733;29;20060;-81
2022/04/23 05:33:18;;;;;;;3.28;2.97;;;;;;;11.59;82.77;100289.47;4927859;29;20059;-81
2022/04/23 05:35:45;;;;;;;3.58;3.28;;;;;;;11.80;81.01;100315.78;4910369;29;20044;-81
2022/04/23 05:38:12;;;;;;;2.90;2.70;;;;;;;11.74;82.01;100306.56;4942106;29;20056;-81
2022/04/23 05:40:38;;;;;;;3.75;3.17;;;;;;;11.80;81.28;100304.31;4919122;29;20044;-81
2022/04/23 05:43:05;;;;;;;6.78;3.10;;;;;;;11.79;81.12;100289.34;4908842;29;20571;-81
2022/04/23 05:45:32;;;;;;;2.90;2.70;;;;;;;11.81;80.94;100263.44;4907840;29;20498;-82
2022/04/23 05:47:59;;;;;;;4.05;2.67;;;;;;;11.17;80.80;100159.00;4927553;29;20055;-82
2022/04/23 05:50:25;;;;;;;4.85;2.55;;;;;;;11.99;81.14;100298.88;4910961;29;20050;-81
2022/04/23 05:52:52;;;;;;;3.03;2.83;;;;;;;11.99;80.76;100296.22;4913294;29;20052;-80
2022/04/23 05:55:22;;;;;;;3.75;3.08;;;;;;;12.12;80.02;100309.13;4919043;29;20063;-83
2022/04/23 05:57:49;;;;;;;2.63;2.42;;;;;;;12.15;80.68;100306.16;4936206;29;20047;-81
2022/04/23 06:00:17;;;;;;;3.72;2.65;;;;;;;12.03;82.08;100294.91;4913122;29;20048;-80
2022/04/23 06:02:44;;;;;;;3.95;3.00;;;;;;;12.11;82.50;100308.28;4910985;29;20062;-81
2022/04/23 06:05:11;;;;;;;3.10;2.90;;;;;;;11.72;82.75;100251.88;4910494;29;20106;-80
2022/04/23 06:07:38;;;;;;;3.95;2.92;;;;;;;12.06;82.96;100299.91;4910347;29;20431;-80
2022/04/23 06:10:05;;;;;;;3.72;2.80;;;;;;;12.15;82.79;100325.59;4906934;29;20052;-80
2022/04/23 06:12:34;;;;;;;3.95;3.58;;;;;;;12.23;82.12;100342.63;4908236;29;20597;-80
2022/04/23 06:15:00;;;;;;;4.88;3.70;;;;;;;12.27;82.48;100341.34;4907458;29;20052;-82
2022/04/23 06:17:28;;;;;;;4.05;3.65;;;;;;;11.90;82.76;100283.81;4917447;29;20064;-81
2022/04/23 06:19:55;;;;;;;3.95;3.53;;;;;;;10.82;83.30;100108.31;4925148;28;20466;-81
2022/04/23 06:22:23;;;;;;;4.72;3.63;;;;;;;11.96;84.20;100294.66;4922391;29;20052;-81
2022/04/23 06:24:51;;;;;;;3.97;3.38;;;;;;;11.91;83.60;100280.16;4891696;29;20067;-82
2022/04/23 06:27:18;;;;;;;4.28;3.75;;;;;;;12.33;82.37;100348.69;4891577;29;20056;-82
2022/04/23 06:29:45;;;;;;;5.20;3.90;;;;;;;12.30;82.89;100343.69;4893257;29;20103;-82
2022/04/23 06:32:12;;;;;;;7.75;3.85;;;;;;;12.40;82.96;100347.94;4892521;29;20578;-83
2022/04/23 06:34:39;;;;;;;4.00;3.70;;;;;;;12.34;82.35;100329.91;4892465;29;20139;-83
2022/04/23 06:37:08;;;;;;;4.10;3.70;;;;;;;12.54;82.04;100349.19;4893331;29;20374;-81
2022/04/23 06:39:35;;;;;;;3.88;3.45;;;;;;;12.63;80.85;100350.09;4893286;29;20053;-81
2022/04/23 06:42:05;;;;;;;4.32;3.50;;;;;;;12.64;81.32;100335.78;4893003;29;20052;-81
2022/04/23 06:44:32;;;;;;;5.00;2.90;;;;;;;12.75;80.14;100335.53;4911720;29;20290;-82
2022/04/23 06:46:58;;;;;;;5.57;3.95;;;;;;;12.70;79.43;100308.53;4927812;29;20055;-82
2022/04/23 06:49:27;;;;;;;3.28;3.08;;;;;;;12.73;79.47;100302.88;4895791;29;20056;-81
2022/04/23 06:51:55;;;;;;;3.92;3.58;;;;;;;12.05;78.79;100175.84;4911137;29;20103;-82
2022/04/23 06:54:23;;;;;;;3.90;3.60;;;;;;;13.10;78.41;100331.06;4895010;29;20228;-80
2022/04/23 06:56:50;;;;;;;3.97;3.20;;;;;;;12.99;78.11;100296.72;4895339;29;20056;-82
2022/04/23 06:59:17;;;;;;;4.07;3.22;;;;;;;13.39;77.75;100337.88;4894938;29;20071;-82
2022/04/23 07:02:02;;;;;;;3.72;2.88;;;;;;;13.06;76.72;100265.75;4890651;29;20072;-82
2022/04/23 07:04:30;;;;;;;2.88;2.67;;;;;;;12.85;76.79;100215.53;4891116;29;20053;-81
2022/04/23 07:06:57;;;;;;;4.07;2.80;;;;;;;13.50;76.43;100304.75;4891794;29;20445;-82
2022/04/23 07:09:25;;;;;;;3.38;3.08;;;;;;;13.81;76.86;100353.84;4892976;29;20112;-81
2022/04/23 07:11:52;;;;;;;4.50;2.80;;;;;;;13.95;76.44;100364.88;4891675;29;20125;-82
2022/04/23 07:14:19;;;;;;;6.20;2.58;;;;;;;14.03;75.49;100363.06;4892613;29;20529;-82
2022/04/23 07:16:47;;;;;;;5.78;3.20;;;;;;;13.98;75.25;100349.38;4892702;29;20522;-81
2022/04/23 07:19:14;;;;;;;3.90;2.67;;;;;;;14.15;75.83;100355.56;4896245;29;20450;-82
2022/04/23 07:21:41;;;;;;;4.15;3.10;;;;;;;14.18;75.89;100363.25;4910860;29;20094;-80
2022/04/23 07:24:10;;;;;;;4.10;3.17;;;;;;;13.26;76.37;100210.34;4927248;29;20052;-82
2022/04/23 07:26:38;;;;;;;3.10;2.70;;;;;;;13.96;76.37;100310.50;4912392;29;20055;-81
2022/04/23 07:29:07;;;;;;;2.85;2.47;;;;;;;13.52;76.28;100238.72;4910907;29;20422;-81
2022/04/23 07:31:36;;;;;;;5.68;2.70;;;;;;;14.25;76.60;100342.88;4910520;29;20071;-82
2022/04/23 07:39:36;;;;;;;5.20;2.72;;;;;;;14.38;73.39;100304.16;4912760;29;20319;-81
2022/04/23 07:42:05;;;;;;;5.20;2.47;;;;;;;14.94;72.34;100358.53;4926574;29;20506;-82
2022/04/23 07:44:32;;;;;;;6.00;3.00;;;;;;;14.65;73.07;100322.50;4912005;29;20062;-82
2022/04/23 07:46:59;;;;;;;4.15;2.35;;;;;;;15.11;71.65;100357.47;4921020;29;20139;-82
2022/04/23 07:49:26;;;;;;;3.85;2.05;;;;;;;15.36;69.67;100357.38;4892084;29;20068;-83
2022/04/23 07:51:53;;;;;;;3.05;2.08;;;;;;;15.49;68.49;100371.06;4893822;29;20395;-83
2022/04/23 07:54:20;;;;;;;4.07;2.03;;;;;;;14.43;67.78;100174.47;4892706;29;20071;-83
2022/04/23 07:56:47;;;;;;;2.88;1.60;;;;;;;15.71;65.80;100355.25;4895729;29;20060;-83
2022/04/23 07:59:17;;;;;;;2.90;1.80;;;;;;;15.07;66.54;100251.91;4893783;29;20058;-83
2022/04/23 08:01:44;;;;;;;2.83;1.75;;;;;;;15.63;66.90;100339.19;4896852;29;20060;-84
2022/04/23 08:04:11;;;;;;;4.63;2.38;;;;;;;15.69;66.52;100331.31;4911954;29;20107;-83
2022/04/23 08:06:40;;;;;;;3.78;2.05;;;;;;;15.69;65.99;100325.13;4910708;29;20063;-84
2022/04/23 08:09:07;;;;;;;2.50;2.15;;;;;;;15.87;65.34;100354.31;4895121;29;20414;-85
2022/04/23 08:11:34;;;;;;;2.75;1.77;;;;;;;15.88;64.37;100324.72;4911855;29;20516;-81
2022/04/23 08:14:02;;;;;;;2.42;1.85;;;;;;;16.02;63.88;100334.66;4895156;29;20056;-82
2022/04/23 08:16:29;;;;;;;3.20;1.33;;;;;;;16.34;63.17;100372.91;4912037;29;20059;-82
2022/04/23 08:18:56;;;;;;;2.08;1.75;;;;;;;16.31;64.40;100370.59;4911689;29;20060;-82
2022/04/23 08:21:23;;;;;;;3.65;1.98;;;;;;;16.38;64.04;100378.72;4894862;29;20048;-83
2022/04/23 08:23:50;;;;;;;3.13;2.05;;;;;;;16.43;63.31;100363.78;4935642;28;20059;-83
2022/04/23 08:26:17;;;;;;;2.17;1.50;;;;;;;15.31;63.44;100177.88;4913723;29;20106;-83
2022/04/23 08:31:30;;;;;;;5.70;2.47;;;;;;;16.60;63.81;100383.25;4930185;29;20051;-82
2022/04/23 08:34:00;;;;;;;5.82;1.95;;;;;;;16.45;64.32;100347.53;4945190;28;20051;-83
2022/04/23 08:36:36;;;;;;;3.15;2.13;;;;;;;16.54;63.14;100350.97;4930403;29;20051;-83
2022/04/23 08:39:04;;;;;;;3.88;2.20;;;;;;;16.78;62.97;100366.00;4930374;29;20059;-82
2022/04/23 08:41:32;;;;;;;5.35;2.33;;;;;;;16.79;62.66;100349.72;4913530;29;20054;-82
2022/04/23 08:44:06;;;;;;;3.22;1.95;;;;;;;17.08;61.36;100386.47;4928929;29;20079;-83
2022/04/23 08:46:34;;;;;;;2.00;1.85;;;;;;;16.97;60.53;100341.34;4913264;29;20094;-83
2022/04/23 08:49:14;;;;;;;4.90;2.25;;;;;;;17.28;59.65;100386.78;4912844;29;20055;-84
2022/04/23 08:51:50;;;;;;;3.67;3.13;;;;;;;17.14;61.05;100363.47;4929763;29;20047;-83
2022/04/23 08:54:17;;;;;;;2.90;1.88;;;;;;;17.59;58.67;100380.34;4912873;29;20048;-84
2022/04/23 08:56:45;;;;;;;3.88;1.67;;;;;;;17.68;58.40;100383.75;4912934;29;20059;-83
2022/04/23 08:59:16;;;;;;;7.20;2.08;;;;;;;17.48;59.37;100367.41;4913550;29;20051;-83
2022/04/23 09:01:49;;;;;;;1.80;1.70;;;;;;;17.53;59.36;100375.75;4929476;29;20552;-83
2022/04/23 09:04:15;;;;;;;1.77;1.67;;;;;;;17.54;58.65;100369.34;4930147;29;20060;-83
2022/04/23 09:06:44;;;;;;;3.63;1.80;;;;;;;17.59;58.61;100366.09;4929704;29;20540;-83
2022/04/23 09:09:22;;;;;;;1.73;1.63;;;;;;;17.76;57.79;100382.81;4913045;29;20067;-83
2022/04/23 09:11:50;;;;;;;2.08;1.50;;;;;;;17.71;58.93;100381.53;4929825;29;20048;-83
2022/04/23 09:14:24;;;;;;;3.05;2.00;;;;;;;17.61;58.83;100381.00;4912931;29;20051;-83
2022/04/23 09:25:44;;;;;;;4.85;1.65;;;;;;;17.69;56.93;100367.47;4929431;29;20052;-83
2022/04/23 09:28:18;;;;;;;3.20;1.48;;;;;;;17.89;56.49;100388.38;4912491;29;20055;-83
2022/04/23 09:30:47;;;;;;;3.90;1.80;;;;;;;17.68;57.43;100365.78;4929637;29;20107;-82
2022/04/23 09:33:14;;;;;;;1.48;1.15;;;;;;;17.47;57.05;100325.47;4912789;29;20062;-83
2022/04/23 09:36:01;;;;;;;6.93;2.17;;;;;;;17.29;57.63;100310.63;4928100;29;20081;-84
2022/04/23 09:38:29;;;;;;;4.28;2.03;;;;;;;17.86;58.24;100399.47;4913033;29;20134;-84
2022/04/23 09:41:15;;;;;;;8.13;1.98;;;;;;;18.17;56.31;100406.44;4913753;29;20482;-84
2022/04/23 09:43:45;;;;;;;2.47;2.28;;;;;;;17.69;55.94;100335.25;4929989;29;20142;-84
2022/04/23 09:46:12;;;;;;;4.28;2.17;;;;;;;18.14;56.85;100403.09;4917079;29;20081;-84
2022/04/23 09:48:40;;;;;;;3.97;1.52;;;;;;;18.20;56.94;100396.13;4935980;29;20055;-85
2022/04/23 09:51:24;;;;;;;4.97;3.97;;;;;;;18.01;56.13;100349.25;4921272;29;20322;-82
2022/04/23 09:53:54;;;;;;;5.85;1.95;;;;;;;18.45;55.73;100396.59;4916927;29;20051;-83
2022/04/23 09:56:22;;;;;;;3.30;1.48;;;;;;;18.53;54.41;100380.31;4912887;29;20559;-84
2022/04/23 09:58:50;;;;;;;2.60;1.25;;;;;;;18.93;54.42;100404.88;4929744;29;20095;-84
2022/04/23 10:01:20;;;;;;;1.42;1.33;;;;;;;18.61;52.09;100309.44;4911444;29;20366;-85
2022/04/23 10:03:54;;;;;;;1.73;1.05;;;;;;;19.35;51.47;100395.00;4926166;29;20130;-83
2022/04/23 10:06:23;;;;;;;2.65;1.33;;;;;;;19.37;51.49;100402.84;4926106;29;20160;-83
2022/04/23 10:08:57;;;;;;;2.05;1.10;;;;;;;18.97;52.21;100349.66;4912349;29;20147;-83
2022/04/23 10:11:30;;;;;;;1.52;1.10;;;;;;;19.37;50.68;100414.47;4911550;29;20052;-84
2022/04/23 10:14:10;;;;;;;1.52;0.90;;;;;;;19.23;49.41;100353.53;4912437;29;20062;-84
2022/04/23 10:16:39;;;;;;;2.55;1.20;;;;;;;19.27;50.11;100370.09;4902358;29;20053;-83
2022/04/23 10:19:09;;;;;;;2.92;1.10;;;;;;;19.21;49.37;100344.81;4897212;29;20059;-84
2022/04/23 10:21:59;;;;;;;3.05;1.00;;;;;;;19.55;48.89;100419.31;4897347;29;20059;-84
2022/04/23 10:24:42;;;;;;;2.08;1.33;;;;;;;19.45;49.42;100400.00;4896986;29;20056;-83
2022/04/23 10:27:12;;;;;;;1.58;0.98;;;;;;;19.54;49.27;100397.97;4896868;29;20060;-83
2022/04/23 10:29:39;;;;;;;1.20;1.10;;;;;;;19.55;48.53;100407.72;4896977;29;20068;-83
2022/04/23 10:32:12;;;;;;;0.95;0.95;;;;;;;19.70;48.55;100423.75;4913361;29;20233;-85
2022/04/23 10:34:40;;;;;;;1.98;1.02;;;;;;;19.65;49.08;100416.25;4912161;29;20056;-83
2022/04/23 10:37:22;;;;;;;2.28;1.27;;;;;;;19.71;48.78;100420.03;4896606;29;20387;-83
2022/04/23 10:39:52;;;;;;;;;;;;;;;19.59;50.33;100417.06;4913817;29;20496;-83
2022/04/23 10:42:21;;;;;;;5.13;1.27;;;;;;;19.57;50.70;100421.81;4911872;29;19922;-83
2022/04/23 10:44:49;;;;;;;1.20;1.10;;;;;;;19.63;48.80;100402.16;4912949;29;20048;-83
2022/04/23 10:47:39;;;;;;;1.65;1.25;;;;;;;19.69;49.02;100408.66;4895967;29;20440;-82
2022/04/23 10:50:13;;;;;;;1.02;0.95;;;;;;;19.95;47.51;100410.59;4896155;29;20525;-85
2022/04/23 10:52:40;;;;;;;3.95;1.98;;;;;;;19.69;48.85;100390.63;4911644;29;20052;-85
2022/04/23 10:55:09;;;;;;;1.65;1.30;;;;;;;19.48;49.13;100344.94;4896173;29;20052;-85
2022/04/23 10:57:36;;;;;;;2.25;1.30;;;;;;;19.79;49.56;100407.22;4896227;29;20197;-84
2022/04/23 11:00:15;;;;;;;1.88;1.15;;;;;;;19.93;48.49;100402.72;4896257;29;20293;-82
2022/04/23 11:02:46;;;;;;;1.52;1.23;;;;;;;19.80;48.61;100355.00;4896475;29;20052;-84
2022/04/23 11:14:44;;;;;;;1.83;1.08;;;;;;;20.49;47.09;100391.63;4912762;29;20141;-85
2022/04/23 11:17:37;;;;;;;1.77;1.58;;;;;;;20.56;47.24;100375.50;4912771;29;20079;-84
2022/04/23 11:20:04;;;;;;;2.78;1.40;;;;;;;20.36;46.59;100342.25;4890735;29;20262;-84
2022/04/23 11:22:32;;;;;;;4.25;1.17;;;;;;;20.52;46.97;100387.69;4912324;29;20143;-85
2022/04/23 11:24:59;;;;;;;1.98;1.42;;;;;;;20.51;46.34;100377.94;4930810;29;20497;-85
2022/04/23 11:27:28;;;;;;;1.58;1.25;;;;;;;20.04;46.98;100315.06;4931183;29;20062;-85
2022/04/23 11:29:55;;;;;;;0.95;0.95;;;;;;;20.40;46.00;100375.88;4929808;29;20059;-84
2022/04/23 11:32:30;;;;;;;1.25;1.10;;;;;;;20.28;47.10;100373.78;4914593;29;20075;-84
2022/04/23 11:35:01;;;;;;;1.55;1.23;;;;;;;19.99;46.89;100329.16;4914532;29;20094;-85
2022/04/23 11:37:32;;;;;;;3.35;1.52;;;;;;;20.20;47.87;100376.66;4931521;29;20055;-85
2022/04/23 11:40:17;;;;;;;2.83;1.10;;;;;;;19.55;46.67;100286.56;4931585;29;20360;-85
2022/04/23 11:42:46;;;;;;;2.00;1.80;;;;;;;19.90;46.59;100325.00;4914949;29;20056;-84
2022/04/23 11:45:18;;;;;;;2.75;1.63;;;;;;;20.03;46.30;100351.97;4915318;29;20301;-86
2022/04/23 11:47:45;;;;;;;1.45;1.33;;;;;;;19.52;47.35;100284.28;4917140;29;20060;-82
2022/04/23 11:50:14;;;;;;;1.92;1.17;;;;;;;20.04;46.27;100342.03;4931795;29;20047;-85
2022/04/23 11:52:44;;;;;;;4.85;1.30;;;;;;;20.17;45.55;100333.13;4915067;29;20501;-84
2022/04/23 11:55:27;;;;;;;2.45;1.90;;;;;;;19.80;46.35;100300.31;4914312;29;20064;-85
2022/04/23 11:57:58;;;;;;;2.22;1.55;;;;;;;19.90;46.25;100294.53;4930120;29;20490;-86
2022/04/23 12:00:26;;;;;;;2.33;1.37;;;;;;;20.20;46.28;100362.38;4914611;29;20055;-85
2022/04/23 12:02:54;;;;;;;3.92;1.55;;;;;;;19.85;45.76;100290.63;4914227;29;20068;-84